Time;durP1;ratioP1;P1;durP2;ratioP2;P2;SDS_P1;SDS_P2;PMS_P1;PMS_P2;Temp;Humidity;BMP_temperature;BMP_pressure;BME280_temperature;BME280_humidity;BME280_pressure;Samples;Min_cycle;Max_cycle;Signal;HPM_P1;HPM_P2
2022/12/03 00:00:37;;;;;;;47.50;24.33;;;3.60;99.90;;;;;;4163627;28;20726;-63
2022/12/03 00:02:39;;;;;;;49.43;26.13;;;3.60;99.90;;;;;;4163068;28;20376;-63
2022/12/03 00:04:40;;;;;;;53.63;28.50;;;3.60;99.90;;;;;;4162947;28;20758;-63
2022/12/03 00:06:41;;;;;;;59.53;30.57;;;3.50;99.90;;;;;;4163301;28;20308;-64
2022/12/03 00:08:42;;;;;;;60.63;30.70;;;3.50;99.90;;;;;;4163224;28;20365;-63
2022/12/03 00:10:44;;;;;;;54.03;30.13;;;3.40;99.90;;;;;;4162976;28;20817;-65
2022/12/03 00:12:45;;;;;;;62.70;30.70;;;3.40;99.90;;;;;;4164446;28;20316;-64
2022/12/03 00:14:46;;;;;;;58.57;32.23;;;3.50;99.90;;;;;;4163063;28;20305;-64
2022/12/03 00:16:47;;;;;;;68.57;34.40;;;3.40;99.90;;;;;;4163561;28;20271;-64
2022/12/03 00:18:49;;;;;;;68.30;35.23;;;3.40;99.90;;;;;;4162892;28;20271;-64
2022/12/03 00:20:50;;;;;;;63.17;32.50;;;3.40;99.90;;;;;;4163490;28;20275;-64
2022/12/03 00:22:51;;;;;;;65.80;33.70;;;3.50;99.90;;;;;;4163110;28;20420;-64
2022/12/03 00:24:52;;;;;;;66.67;34.27;;;3.50;99.90;;;;;;4163830;28;20278;-64
2022/12/03 00:26:53;;;;;;;69.70;35.97;;;3.50;99.90;;;;;;4162291;28;20309;-66
2022/12/03 00:28:55;;;;;;;73.70;38.70;;;3.60;99.90;;;;;;4163400;28;20372;-64
2022/12/03 00:30:56;;;;;;;74.70;37.80;;;3.60;99.90;;;;;;4163200;28;20258;-63
2022/12/03 00:32:57;;;;;;;74.90;37.47;;;3.50;99.90;;;;;;4162433;28;20275;-64
2022/12/03 00:34:58;;;;;;;69.27;36.70;;;3.50;99.90;;;;;;4163124;28;20283;-64
2022/12/03 00:36:59;;;;;;;70.63;34.43;;;3.60;99.90;;;;;;4162727;28;20328;-63
2022/12/03 00:39:00;;;;;;;65.93;32.63;;;3.60;99.90;;;;;;4163299;28;20677;-63
2022/12/03 00:41:01;;;;;;;59.43;32.27;;;3.60;99.90;;;;;;4162458;28;20674;-64
2022/12/03 00:43:02;;;;;;;61.57;30.67;;;3.60;99.90;;;;;;4163008;28;20340;-62
2022/12/03 00:45:04;;;;;;;64.90;31.70;;;3.60;99.90;;;;;;4162349;28;20332;-63
2022/12/03 00:47:05;;;;;;;62.70;31.13;;;3.60;99.90;;;;;;4163112;28;20290;-63
2022/12/03 00:49:07;;;;;;;58.77;31.63;;;3.70;99.90;;;;;;4162046;28;20694;-64
2022/12/03 00:51:08;;;;;;;73.13;35.63;;;3.70;99.90;;;;;;4163650;28;20259;-66
2022/12/03 00:53:09;;;;;;;67.97;34.07;;;3.70;99.90;;;;;;4162431;28;20750;-64
2022/12/03 00:55:10;;;;;;;71.67;36.27;;;3.60;99.90;;;;;;4163039;28;20285;-64
2022/12/03 00:57:11;;;;;;;84.10;34.97;;;3.60;99.90;;;;;;4161966;28;20271;-64
2022/12/03 00:59:12;;;;;;;69.47;36.30;;;3.60;99.90;;;;;;4162338;28;20275;-64
2022/12/03 01:01:13;;;;;;;67.80;34.13;;;3.60;99.90;;;;;;4162204;28;20263;-64
2022/12/03 01:03:15;;;;;;;67.17;33.67;;;3.60;99.90;;;;;;4162179;28;20267;-65
2022/12/03 01:05:16;;;;;;;70.80;37.03;;;3.60;99.90;;;;;;4162392;28;20755;-63
2022/12/03 01:07:18;;;;;;;68.10;34.70;;;3.60;99.90;;;;;;4161643;28;20275;-64
2022/12/03 01:09:19;;;;;;;71.23;37.03;;;3.50;99.90;;;;;;4163231;28;20812;-63
2022/12/03 01:11:38;;;;;;;72.50;37.87;;;3.50;99.90;;;;;;4161755;28;20767;-63
2022/12/03 01:13:39;;;;;;;63.33;33.23;;;3.50;99.90;;;;;;4162924;28;20743;-63
2022/12/03 01:15:40;;;;;;;66.63;34.53;;;3.50;99.90;;;;;;4160450;28;20651;-63
2022/12/03 01:17:41;;;;;;;66.83;34.63;;;3.60;99.90;;;;;;4162194;28;20290;-62
2022/12/03 01:19:43;;;;;;;69.43;35.60;;;3.60;99.90;;;;;;4162007;28;20275;-63
2022/12/03 01:21:47;;;;;;;68.33;34.93;;;3.70;99.90;;;;;;4162685;28;20759;-64
2022/12/03 01:23:48;;;;;;;66.00;35.13;;;3.70;99.90;;;;;;4161907;28;20297;-64
2022/12/03 01:25:49;;;;;;;65.60;34.03;;;3.70;99.90;;;;;;4163034;28;20325;-63
2022/12/03 01:27:50;;;;;;;67.07;33.03;;;3.70;99.90;;;;;;4161316;28;20368;-64
2022/12/03 01:29:51;;;;;;;71.13;34.93;;;3.70;99.90;;;;;;4163048;28;20666;-64
2022/12/03 01:34:12;;;;;;;63.30;32.37;;;3.70;99.90;;;;;;4163625;28;20325;-64
2022/12/03 01:36:13;;;;;;;62.33;31.07;;;3.70;99.90;;;;;;4161356;28;20711;-64
2022/12/03 01:38:15;;;;;;;62.10;32.13;;;3.70;99.90;;;;;;4161766;28;20616;-63
2022/12/03 01:40:18;;;;;;;52.87;28.33;;;3.70;99.90;;;;;;4161873;28;20328;-63
2022/12/03 01:42:40;;;;;;;48.13;27.17;;;3.80;99.90;;;;;;4161874;28;20321;-63
2022/12/03 01:44:43;;;;;;;56.20;27.63;;;3.80;99.90;;;;;;4162120;28;20271;-63
2022/12/03 01:46:45;;;;;;;46.60;25.63;;;3.70;99.90;;;;;;4162045;28;20293;-63
2022/12/03 01:48:49;;;;;;;48.63;25.83;;;3.70;99.90;;;;;;4161846;28;20670;-64
2022/12/03 01:50:51;;;;;;;48.17;24.03;;;3.70;99.90;;;;;;4161578;28;20340;-64
2022/12/03 01:52:57;;;;;;;46.13;23.53;;;3.70;99.90;;;;;;4161767;28;20275;-63
2022/12/03 01:55:00;;;;;;;51.10;26.03;;;3.60;99.90;;;;;;4161663;28;20275;-65
2022/12/03 01:57:02;;;;;;;41.20;23.63;;;3.50;99.90;;;;;;4161721;28;20321;-64
2022/12/03 01:59:03;;;;;;;39.93;22.70;;;3.50;99.90;;;;;;4161493;28;20316;-64
2022/12/03 02:01:10;;;;;;;46.17;23.83;;;3.50;99.90;;;;;;4144773;28;20310;-64
2022/12/03 02:03:18;;;;;;;42.90;23.67;;;3.50;99.90;;;;;;4160171;28;20813;-64
2022/12/03 02:05:25;;;;;;;42.70;22.47;;;3.40;99.90;;;;;;4162380;28;20259;-63
2022/12/03 02:07:27;;;;;;;46.87;24.93;;;3.40;99.90;;;;;;4160211;28;20266;-64
2022/12/03 02:09:28;;;;;;;45.13;23.53;;;3.40;99.90;;;;;;4161679;28;20821;-64
2022/12/03 02:11:33;;;;;;;47.67;24.03;;;3.40;99.90;;;;;;4160658;28;21155;-64
2022/12/03 02:13:35;;;;;;;46.80;24.00;;;3.40;99.90;;;;;;4162184;28;20271;-64
2022/12/03 02:15:39;;;;;;;45.20;23.57;;;3.40;99.90;;;;;;4160977;28;20267;-63
2022/12/03 02:17:41;;;;;;;52.23;27.63;;;3.30;99.90;;;;;;4161828;28;20352;-63
2022/12/03 02:19:42;;;;;;;57.17;27.43;;;3.30;99.90;;;;;;4160258;28;20294;-64
2022/12/03 02:22:06;;;;;;;53.57;28.33;;;3.30;99.90;;;;;;4161898;28;20282;-63
2022/12/03 02:24:39;;;;;;;52.57;25.60;;;3.30;99.90;;;;;;4161088;28;20321;-63
2022/12/03 02:26:40;;;;;;;47.87;25.83;;;3.30;99.90;;;;;;4161671;28;20600;-63
2022/12/03 02:28:41;;;;;;;50.07;24.20;;;3.20;99.90;;;;;;4160408;28;20291;-63
2022/12/03 02:30:43;;;;;;;53.97;26.90;;;3.20;99.90;;;;;;4161865;28;20275;-64
2022/12/03 02:32:44;;;;;;;48.77;24.90;;;3.20;99.90;;;;;;4160857;28;20298;-64
2022/12/03 02:34:46;;;;;;;51.13;25.27;;;3.20;99.90;;;;;;4162077;28;20747;-64
2022/12/03 02:36:47;;;;;;;42.03;22.70;;;3.20;99.90;;;;;;4160826;28;20255;-63
2022/12/03 02:38:49;;;;;;;48.00;23.97;;;3.20;99.90;;;;;;4161608;28;20689;-63
2022/12/03 02:40:55;;;;;;;46.83;24.43;;;3.20;99.90;;;;;;4160734;28;20271;-64
2022/12/03 02:43:00;;;;;;;47.60;25.10;;;3.30;99.90;;;;;;4161129;28;20329;-65
2022/12/03 02:45:13;;;;;;;54.77;28.00;;;3.30;99.90;;;;;;4161223;28;20255;-65
2022/12/03 02:47:15;;;;;;;52.13;25.57;;;3.30;99.90;;;;;;4160332;28;20336;-65
2022/12/03 02:49:16;;;;;;;49.20;26.07;;;3.30;99.90;;;;;;4161254;28;20287;-63
2022/12/03 02:51:17;;;;;;;48.07;24.73;;;3.40;99.90;;;;;;4160584;28;20275;-62
2022/12/03 02:53:23;;;;;;;49.93;24.73;;;3.40;99.90;;;;;;4175932;28;20344;-63
2022/12/03 02:55:25;;;;;;;50.00;25.93;;;3.40;99.90;;;;;;4160661;28;20636;-64
2022/12/03 02:57:26;;;;;;;40.97;23.23;;;3.50;99.90;;;;;;4161709;28;20259;-64
2022/12/03 02:59:27;;;;;;;45.97;23.97;;;3.50;99.90;;;;;;4160144;28;20355;-63
2022/12/03 03:01:28;;;;;;;43.93;23.60;;;3.50;99.90;;;;;;4161416;28;20263;-64
2022/12/03 03:03:31;;;;;;;51.97;26.47;;;3.50;99.90;;;;;;4160573;28;20712;-64
2022/12/03 03:05:33;;;;;;;45.93;23.97;;;3.50;99.90;;;;;;4176018;28;20266;-64
2022/12/03 03:07:35;;;;;;;44.73;23.80;;;3.50;99.90;;;;;;4160105;28;20582;-64
2022/12/03 03:09:37;;;;;;;49.23;26.13;;;3.50;99.90;;;;;;4161787;28;20287;-64
2022/12/03 03:11:38;;;;;;;48.67;25.47;;;3.60;99.90;;;;;;4160531;28;20266;-64
2022/12/03 03:13:39;;;;;;;45.77;23.97;;;3.60;99.90;;;;;;4161974;28;20259;-63
2022/12/03 03:15:41;;;;;;;53.00;26.47;;;3.60;99.90;;;;;;4160445;28;20275;-63
2022/12/03 03:17:43;;;;;;;54.50;26.40;;;3.60;99.90;;;;;;4160619;28;20636;-63
2022/12/03 03:19:44;;;;;;;47.07;25.17;;;3.50;99.90;;;;;;4175092;28;20250;-63
2022/12/03 03:21:46;;;;;;;54.23;26.17;;;3.40;99.90;;;;;;4162248;28;20336;-64
2022/12/03 03:23:47;;;;;;;46.53;24.00;;;3.40;99.90;;;;;;4163993;28;20690;-63
2022/12/03 03:26:03;;;;;;;50.53;25.80;;;3.40;99.90;;;;;;4163881;28;20389;-63
2022/12/03 03:28:05;;;;;;;51.07;25.93;;;3.30;99.90;;;;;;4164263;28;20298;-63
2022/12/03 03:30:08;;;;;;;53.20;29.10;;;3.20;99.90;;;;;;4163674;28;20287;-63
2022/12/03 03:32:09;;;;;;;57.10;30.40;;;3.20;99.90;;;;;;4164210;28;20263;-63
2022/12/03 03:34:10;;;;;;;63.00;31.30;;;3.20;99.90;;;;;;4163617;28;20259;-64
2022/12/03 03:36:13;;;;;;;65.37;33.57;;;3.20;99.90;;;;;;4164104;28;20289;-63
2022/12/03 03:38:17;;;;;;;63.23;32.33;;;3.20;99.90;;;;;;4162716;28;20267;-63
2022/12/03 03:40:20;;;;;;;56.63;31.43;;;3.20;99.90;;;;;;4164724;28;20267;-63
2022/12/03 03:42:22;;;;;;;70.33;33.37;;;3.20;99.90;;;;;;4163106;28;20263;-63
2022/12/03 03:44:23;;;;;;;64.53;32.03;;;3.30;99.90;;;;;;4164416;28;20263;-64
2022/12/03 03:46:24;;;;;;;61.63;32.60;;;3.30;99.90;;;;;;4162767;28;20279;-63
2022/12/03 03:48:25;;;;;;;54.77;28.93;;;3.30;99.90;;;;;;4164524;28;20325;-63
2022/12/03 03:50:29;;;;;;;56.17;28.67;;;3.30;99.90;;;;;;4163573;28;20255;-64
2022/12/03 03:52:32;;;;;;;52.20;27.23;;;3.30;99.90;;;;;;4164361;28;20259;-63
2022/12/03 03:54:33;;;;;;;56.97;29.37;;;3.40;99.90;;;;;;4163266;28;20289;-63
2022/12/03 03:56:35;;;;;;;53.23;27.47;;;3.30;99.90;;;;;;4163681;28;20328;-63
2022/12/03 03:58:37;;;;;;;55.60;28.50;;;3.30;99.90;;;;;;4173290;28;20284;-63
2022/12/03 04:00:38;;;;;;;54.43;28.30;;;3.30;99.90;;;;;;4179488;28;20270;-63
2022/12/03 04:02:40;;;;;;;53.10;29.27;;;3.30;99.90;;;;;;4179737;28;20266;-64
2022/12/03 04:04:41;;;;;;;60.80;31.70;;;3.20;99.90;;;;;;4179820;28;20323;-62
2022/12/03 04:06:42;;;;;;;55.33;28.93;;;3.20;99.90;;;;;;4180127;28;20270;-65
2022/12/03 04:08:43;;;;;;;50.33;27.07;;;3.20;99.90;;;;;;4179456;28;20358;-63
2022/12/03 04:13:04;;;;;;;47.40;24.53;;;3.20;99.90;;;;;;4179561;28;20332;-64
2022/12/03 04:15:06;;;;;;;46.27;24.60;;;3.20;99.90;;;;;;4180930;28;20269;-64
2022/12/03 04:17:08;;;;;;;53.37;23.43;;;3.20;99.90;;;;;;4163984;28;20283;-64
2022/12/03 04:19:09;;;;;;;50.23;25.10;;;3.10;99.90;;;;;;4163692;28;20729;-64
2022/12/03 04:23:32;;;;;;;47.07;24.93;;;3.00;99.90;;;;;;4163618;28;20659;-63
2022/12/03 04:30:20;;;;;;;44.47;26.13;;;2.90;99.90;;;;;;4162423;28;20821;-64
2022/12/03 04:37:00;;;;;;;50.93;25.83;;;2.90;99.90;;;;;;4148995;28;20416;-64
2022/12/03 04:39:02;;;;;;;52.03;25.70;;;2.90;99.90;;;;;;4162318;28;20287;-63
2022/12/03 04:41:03;;;;;;;47.10;24.30;;;2.90;99.90;;;;;;4163551;28;20333;-63
2022/12/03 04:43:04;;;;;;;48.97;25.47;;;2.90;99.90;;;;;;4144520;28;20738;-64
2022/12/03 04:45:06;;;;;;;48.10;24.43;;;2.90;99.90;;;;;;4163739;28;20666;-64
2022/12/03 04:47:25;;;;;;;47.10;25.07;;;2.90;99.90;;;;;;4161812;28;20838;-63
2022/12/03 04:49:26;;;;;;;48.13;23.73;;;2.90;99.90;;;;;;4163367;28;20624;-64
2022/12/03 04:51:27;;;;;;;47.77;25.37;;;2.90;99.90;;;;;;4162228;28;20305;-64
2022/12/03 04:53:28;;;;;;;49.20;25.43;;;2.90;99.90;;;;;;4163379;28;20332;-64
2022/12/03 04:55:31;;;;;;;48.10;24.87;;;2.90;99.90;;;;;;4162302;28;20324;-64
2022/12/03 04:57:32;;;;;;;45.77;25.17;;;2.90;99.90;;;;;;4162404;28;20283;-63
2022/12/03 04:59:34;;;;;;;45.40;25.13;;;2.90;99.90;;;;;;4162060;28;20255;-63
2022/12/03 05:01:35;;;;;;;43.83;23.33;;;2.90;99.90;;;;;;4162962;28;20667;-64
2022/12/03 05:03:36;;;;;;;45.97;23.23;;;2.90;99.90;;;;;;4162774;28;20271;-64
2022/12/03 05:05:38;;;;;;;44.57;25.10;;;2.90;99.90;;;;;;4162151;28;20279;-65
2022/12/03 05:07:39;;;;;;;46.73;25.10;;;2.80;99.90;;;;;;4162672;28;20600;-64
2022/12/03 05:09:40;;;;;;;43.40;23.20;;;2.80;99.90;;;;;;4161736;28;20337;-64
2022/12/03 05:11:42;;;;;;;47.17;25.30;;;2.80;99.90;;;;;;4145535;28;20830;-65
2022/12/03 05:13:43;;;;;;;44.80;24.13;;;2.90;99.90;;;;;;4162156;28;20289;-65
2022/12/03 05:15:44;;;;;;;51.93;26.47;;;2.80;99.90;;;;;;4163406;28;20336;-64
2022/12/03 05:17:45;;;;;;;49.60;25.70;;;2.80;99.90;;;;;;4161609;28;20267;-65
2022/12/03 05:22:06;;;;;;;53.60;26.67;;;2.70;99.90;;;;;;4162423;28;20313;-63
2022/12/03 05:24:07;;;;;;;55.33;28.50;;;2.70;99.90;;;;;;4163039;28;20292;-63
2022/12/03 05:26:09;;;;;;;56.70;30.30;;;2.70;99.90;;;;;;4161911;28;20328;-66
2022/12/03 05:28:10;;;;;;;58.50;30.17;;;2.60;99.90;;;;;;4162593;28;20650;-65
2022/12/03 05:30:11;;;;;;;55.77;28.00;;;2.60;99.90;;;;;;4161686;28;20263;-64
2022/12/03 05:32:13;;;;;;;58.17;28.17;;;2.60;99.90;;;;;;4162339;28;20670;-63
2022/12/03 05:34:14;;;;;;;53.13;28.87;;;2.60;99.90;;;;;;4161366;28;20275;-64
2022/12/03 05:36:15;;;;;;;57.20;30.17;;;2.60;99.90;;;;;;4162361;28;20584;-64
2022/12/03 05:38:16;;;;;;;60.63;31.40;;;2.60;99.90;;;;;;4161895;28;20263;-64
2022/12/03 05:40:17;;;;;;;60.30;30.90;;;2.70;99.90;;;;;;4161581;28;20341;-64
2022/12/03 05:44:38;;;;;;;58.57;31.37;;;2.70;99.90;;;;;;4162052;28;20297;-62
2022/12/03 05:46:39;;;;;;;59.20;30.03;;;2.80;99.90;;;;;;4161617;28;20353;-63
2022/12/03 05:48:40;;;;;;;59.37;29.60;;;2.80;99.90;;;;;;4161075;28;20686;-64
2022/12/03 05:50:43;;;;;;;60.53;30.17;;;2.80;99.90;;;;;;4161544;28;20267;-67
2022/12/03 05:52:45;;;;;;;51.73;27.93;;;2.80;99.90;;;;;;4161101;28;20682;-68
2022/12/03 05:54:46;;;;;;;52.97;28.07;;;2.90;99.90;;;;;;4162506;28;20318;-64
2022/12/03 05:56:47;;;;;;;60.57;29.47;;;2.90;99.90;;;;;;4161318;28;20255;-64
2022/12/03 05:58:48;;;;;;;56.17;28.50;;;2.90;99.90;;;;;;4162603;28;20676;-63
2022/12/03 06:00:49;;;;;;;52.37;28.57;;;2.90;99.90;;;;;;4161270;28;20271;-65
2022/12/03 06:02:51;;;;;;;55.83;26.97;;;2.90;99.90;;;;;;4162093;28;21068;-63
2022/12/03 06:04:52;;;;;;;47.50;26.27;;;3.00;99.90;;;;;;4161350;28;20305;-63
2022/12/03 06:06:54;;;;;;;49.47;26.93;;;3.00;99.90;;;;;;4162380;28;20654;-64
2022/12/03 06:08:55;;;;;;;52.87;27.90;;;2.90;99.90;;;;;;4160986;28;20624;-63
2022/12/03 06:10:56;;;;;;;53.00;28.83;;;3.00;99.90;;;;;;4161920;28;20270;-64
2022/12/03 06:12:57;;;;;;;57.03;30.60;;;3.00;99.90;;;;;;4160967;28;20804;-64
2022/12/03 06:14:58;;;;;;;56.83;31.33;;;3.00;99.90;;;;;;4161515;28;20267;-62
2022/12/03 06:17:00;;;;;;;60.33;33.77;;;3.00;99.90;;;;;;4161102;28;20270;-62
2022/12/03 06:19:01;;;;;;;54.27;29.77;;;2.90;99.90;;;;;;4161017;28;20274;-62
2022/12/03 06:21:02;;;;;;;57.33;31.60;;;2.90;99.90;;;;;;4144050;28;20322;-63
2022/12/03 06:23:04;;;;;;;57.13;30.57;;;2.90;99.90;;;;;;4160867;28;20275;-63
2022/12/03 06:25:05;;;;;;;51.77;29.93;;;2.90;99.90;;;;;;4162092;28;20297;-63
2022/12/03 06:27:06;;;;;;;57.03;30.13;;;3.00;99.90;;;;;;4160373;28;20259;-62
2022/12/03 06:29:08;;;;;;;54.37;29.33;;;3.10;99.90;;;;;;4162305;28;20360;-62
2022/12/03 06:31:09;;;;;;;58.00;30.87;;;3.10;99.90;;;;;;4143069;28;20291;-63
2022/12/03 06:33:10;;;;;;;54.80;30.57;;;3.20;99.90;;;;;;4161930;28;20588;-63
2022/12/03 06:35:11;;;;;;;55.87;31.03;;;3.10;99.90;;;;;;4160838;28;20289;-63
2022/12/03 06:37:12;;;;;;;49.93;28.50;;;3.10;99.90;;;;;;4161634;28;20328;-63
2022/12/03 06:39:14;;;;;;;48.73;26.17;;;3.10;99.90;;;;;;4160334;28;21194;-64
2022/12/03 06:41:15;;;;;;;49.27;26.00;;;2.90;99.90;;;;;;4160867;28;20290;-64
2022/12/03 06:43:16;;;;;;;48.10;25.07;;;2.90;99.90;;;;;;4161045;28;20274;-63
2022/12/03 06:45:17;;;;;;;41.13;24.07;;;2.70;99.90;;;;;;4159977;28;20286;-63
2022/12/03 06:47:18;;;;;;;44.87;23.83;;;2.70;99.90;;;;;;4161097;28;20336;-64
2022/12/03 06:49:19;;;;;;;47.80;25.83;;;2.70;99.90;;;;;;4160646;28;20770;-64
2022/12/03 06:51:21;;;;;;;48.93;27.00;;;2.70;99.90;;;;;;4161520;28;20323;-64
2022/12/03 06:53:22;;;;;;;51.73;25.07;;;2.60;99.90;;;;;;4160178;28;20306;-63
2022/12/03 06:55:23;;;;;;;43.93;23.67;;;2.60;99.90;;;;;;4161255;28;20255;-62
2022/12/03 06:57:24;;;;;;;43.67;24.33;;;2.70;99.90;;;;;;4160390;28;20266;-62
2022/12/03 06:59:25;;;;;;;45.73;25.73;;;2.70;99.90;;;;;;4161260;28;20271;-63
2022/12/03 07:01:26;;;;;;;55.63;28.40;;;2.70;99.90;;;;;;4159703;28;20320;-63
2022/12/03 07:03:27;;;;;;;61.07;32.20;;;2.70;99.90;;;;;;4160583;28;20270;-64
2022/12/03 07:05:28;;;;;;;80.07;38.67;;;2.70;99.90;;;;;;4160308;28;20279;-63
2022/12/03 07:07:30;;;;;;;62.90;31.27;;;2.70;99.90;;;;;;4160593;28;20267;-63
2022/12/03 07:09:31;;;;;;;61.47;31.53;;;2.70;99.90;;;;;;4159440;28;20290;-63
2022/12/03 07:11:38;;;;;;;70.97;32.37;;;2.60;99.90;;;;;;4160687;28;20283;-63
2022/12/03 07:13:39;;;;;;;71.37;34.87;;;2.60;99.90;;;;;;4160472;28;20251;-63
2022/12/03 07:15:40;;;;;;;63.27;32.17;;;2.50;99.90;;;;;;4160442;28;20275;-63
2022/12/03 07:17:41;;;;;;;69.53;36.07;;;2.50;99.90;;;;;;4160541;28;20263;-64
2022/12/03 07:19:42;;;;;;;70.43;34.13;;;2.40;99.90;;;;;;4159832;28;20805;-63
2022/12/03 07:21:44;;;;;;;71.33;35.13;;;2.40;99.90;;;;;;4159670;28;20271;-64
2022/12/03 07:23:45;;;;;;;66.67;35.03;;;2.50;99.90;;;;;;4159703;28;20344;-64
2022/12/03 07:25:46;;;;;;;77.60;35.43;;;2.50;99.90;;;;;;4160534;28;20320;-65
2022/12/03 07:27:47;;;;;;;70.77;34.93;;;2.50;99.90;;;;;;4159437;28;20308;-63
2022/12/03 07:29:48;;;;;;;78.03;35.37;;;2.50;99.90;;;;;;4160855;28;20296;-63
2022/12/03 07:31:49;;;;;;;86.03;37.30;;;2.40;99.90;;;;;;4159783;28;20658;-63
2022/12/03 07:33:50;;;;;;;76.67;36.10;;;2.40;99.90;;;;;;4160090;28;20328;-65
2022/12/03 07:35:51;;;;;;;142.00;37.37;;;2.30;99.90;;;;;;4159341;28;20324;-66
2022/12/03 07:37:53;;;;;;;261.17;39.30;;;2.30;99.90;;;;;;4160400;28;20282;-64
2022/12/03 07:39:54;;;;;;;298.17;43.73;;;2.30;99.90;;;;;;4159704;28;20279;-66
2022/12/03 07:41:55;;;;;;;136.83;36.17;;;2.20;99.90;;;;;;4159337;28;20282;-63
2022/12/03 07:43:56;;;;;;;175.50;38.27;;;2.20;99.90;;;;;;4158229;28;20632;-64
2022/12/03 07:45:57;;;;;;;265.70;40.83;;;2.20;99.90;;;;;;4155086;28;20267;-64
2022/12/03 07:47:58;;;;;;;183.47;36.03;;;2.20;99.90;;;;;;4157765;28;20324;-63
2022/12/03 07:49:59;;;;;;;231.47;40.40;;;2.20;99.90;;;;;;4159658;28;20298;-67
2022/12/03 07:52:00;;;;;;;108.97;33.47;;;2.20;99.90;;;;;;4142177;28;20272;-65
2022/12/03 07:54:02;;;;;;;117.27;33.57;;;2.10;99.90;;;;;;4158293;28;20321;-68
2022/12/03 07:56:04;;;;;;;263.70;36.47;;;2.20;99.90;;;;;;4160512;28;20255;-64
2022/12/03 07:58:05;;;;;;;168.93;34.33;;;2.20;99.90;;;;;;4159348;28;20267;-65
2022/12/03 08:00:06;;;;;;;83.17;28.60;;;2.10;99.90;;;;;;4160524;28;20263;-64
2022/12/03 08:02:08;;;;;;;243.30;34.77;;;2.00;99.90;;;;;;4158782;28;20328;-62
2022/12/03 08:04:10;;;;;;;147.70;30.13;;;1.90;99.90;;;;;;4160231;28;20328;-68
2022/12/03 08:06:11;;;;;;;179.30;30.47;;;1.90;99.90;;;;;;4160769;28;20638;-64
2022/12/03 08:08:13;;;;;;;217.50;31.93;;;1.90;99.90;;;;;;4161871;28;20341;-64
2022/12/03 08:10:14;;;;;;;215.30;34.00;;;1.80;99.90;;;;;;4161079;28;20306;-68
2022/12/03 08:12:20;;;;;;;88.70;28.40;;;1.80;99.90;;;;;;4145071;28;20346;-67
2022/12/03 08:14:21;;;;;;;98.57;32.50;;;1.80;99.90;;;;;;4162883;28;20301;-68
2022/12/03 08:16:22;;;;;;;56.90;29.30;;;1.80;99.90;;;;;;4163102;28;20741;-69
2022/12/03 08:18:23;;;;;;;62.00;31.60;;;1.90;99.90;;;;;;4162558;28;20271;-63
2022/12/03 08:20:28;;;;;;;83.23;32.67;;;2.00;99.90;;;;;;4162532;28;20743;-67
2022/12/03 08:22:29;;;;;;;61.73;32.87;;;2.10;99.90;;;;;;4162466;28;20267;-65
2022/12/03 08:24:30;;;;;;;66.60;32.00;;;2.10;99.90;;;;;;4160923;28;20287;-63
2022/12/03 08:26:31;;;;;;;67.27;32.40;;;2.20;99.90;;;;;;4163169;28;20267;-63
2022/12/03 08:28:33;;;;;;;65.17;31.17;;;2.30;99.90;;;;;;4162124;28;20385;-65
2022/12/03 08:30:34;;;;;;;67.37;32.63;;;2.30;99.90;;;;;;4163035;28;20323;-67
2022/12/03 08:32:35;;;;;;;65.97;29.27;;;2.40;99.90;;;;;;4161959;28;20368;-65
2022/12/03 08:34:41;;;;;;;67.53;31.83;;;2.50;99.90;;;;;;4163499;28;20271;-63
2022/12/03 08:36:42;;;;;;;63.33;29.83;;;2.50;99.90;;;;;;4162310;28;20266;-67
2022/12/03 08:38:53;;;;;;;68.23;32.03;;;2.60;99.90;;;;;;4163124;28;20279;-67
2022/12/03 08:40:54;;;;;;;71.40;31.57;;;2.70;99.90;;;;;;4160902;28;20270;-65
2022/12/03 08:42:55;;;;;;;61.03;31.50;;;2.80;99.90;;;;;;4162525;28;20275;-63
2022/12/03 08:45:26;;;;;;;70.43;32.43;;;2.80;99.90;;;;;;4160692;28;20282;-66
2022/12/03 08:47:28;;;;;;;60.55;29.55;;;2.90;99.90;;;;;;4146677;28;20283;-63
2022/12/03 08:49:29;;;;;;;59.50;28.80;;;3.00;99.90;;;;;;4130461;28;20520;-65
2022/12/03 08:51:31;;;;;;;62.30;28.63;;;3.10;99.90;;;;;;4161618;28;20278;-66
2022/12/03 08:53:32;;;;;;;61.97;29.57;;;3.10;99.90;;;;;;4160827;28;20343;-66
2022/12/03 08:55:34;;;;;;;61.03;27.40;;;3.20;99.90;;;;;;4144365;28;20272;-67
2022/12/03 08:57:35;;;;;;;55.93;26.17;;;3.20;99.90;;;;;;4161235;28;20314;-62
2022/12/03 08:59:36;;;;;;;59.13;25.37;;;3.30;99.90;;;;;;4161791;28;20262;-61
2022/12/03 09:01:48;;;;;;;56.80;26.23;;;3.30;99.90;;;;;;4162896;28;20755;-61
2022/12/03 09:03:51;;;;;;;56.03;25.07;;;3.40;99.90;;;;;;4161873;28;20305;-63
2022/12/03 09:05:53;;;;;;;52.47;23.13;;;3.40;99.90;;;;;;4161829;28;20813;-67
2022/12/03 09:07:54;;;;;;;46.23;23.17;;;3.40;99.90;;;;;;4162104;28;20267;-64
2022/12/03 09:09:55;;;;;;;47.53;24.17;;;3.40;99.90;;;;;;4161874;28;20832;-65
2022/12/03 09:11:56;;;;;;;47.23;22.43;;;3.50;99.90;;;;;;4161723;28;20270;-67
2022/12/03 09:13:57;;;;;;;48.27;21.80;;;3.50;99.90;;;;;;4162123;28;20622;-61
2022/12/03 09:15:59;;;;;;;43.93;22.07;;;3.50;99.90;;;;;;4161663;28;20313;-63
2022/12/03 09:18:00;;;;;;;46.63;22.80;;;3.60;99.90;;;;;;4162914;28;20255;-62
2022/12/03 09:20:01;;;;;;;48.37;24.43;;;3.60;99.90;;;;;;4160437;28;20263;-62
2022/12/03 09:22:02;;;;;;;48.50;22.43;;;3.70;99.90;;;;;;4163067;28;20325;-64
2022/12/03 09:24:03;;;;;;;46.37;23.93;;;3.60;99.90;;;;;;4161680;28;20731;-61
2022/12/03 09:26:04;;;;;;;45.13;21.73;;;3.60;99.90;;;;;;4161995;28;20258;-63
2022/12/03 09:28:06;;;;;;;41.23;21.43;;;3.60;99.90;;;;;;4160919;28;20393;-61
2022/12/03 09:30:07;;;;;;;45.30;21.43;;;3.60;99.90;;;;;;4162591;28;20332;-64
2022/12/03 09:32:08;;;;;;;50.23;22.77;;;3.60;99.90;;;;;;4161312;28;20743;-60
2022/12/03 09:34:10;;;;;;;43.10;20.47;;;3.60;99.90;;;;;;4162336;28;20329;-65
2022/12/03 09:36:11;;;;;;;46.53;20.80;;;3.60;99.90;;;;;;4161546;28;20829;-66
2022/12/03 09:38:12;;;;;;;40.23;21.10;;;3.60;99.90;;;;;;4161906;28;20305;-65
2022/12/03 09:40:13;;;;;;;44.77;21.60;;;3.60;99.90;;;;;;4161574;28;20329;-64
2022/12/03 09:42:14;;;;;;;45.00;18.60;;;3.60;99.90;;;;;;4161358;28;20275;-65
2022/12/03 09:44:16;;;;;;;44.17;20.97;;;3.60;99.90;;;;;;4162505;28;20282;-64
2022/12/03 09:46:18;;;;;;;50.17;22.23;;;3.50;99.90;;;;;;4161126;28;20341;-64
2022/12/03 09:48:20;;;;;;;43.90;20.80;;;3.50;99.90;;;;;;4161901;28;20348;-64
2022/12/03 09:50:24;;;;;;;47.27;21.57;;;3.50;99.90;;;;;;4160936;28;20298;-63
2022/12/03 09:52:27;;;;;;;44.67;20.33;;;3.50;99.90;;;;;;4162454;28;20263;-66
2022/12/03 09:54:30;;;;;;;46.00;21.20;;;3.40;99.90;;;;;;4160896;28;20317;-65
2022/12/03 09:56:32;;;;;;;44.70;20.20;;;3.50;99.90;;;;;;4162086;28;20266;-64
2022/12/03 09:58:34;;;;;;;41.27;20.10;;;3.50;99.90;;;;;;4161055;28;20275;-64
2022/12/03 10:00:35;;;;;;;41.10;19.37;;;3.50;99.90;;;;;;4161235;28;20305;-67
2022/12/03 10:02:36;;;;;;;41.10;20.23;;;3.40;99.90;;;;;;4161153;28;20328;-64
2022/12/03 10:04:37;;;;;;;50.80;22.60;;;3.40;99.90;;;;;;4161572;28;20279;-64
2022/12/03 10:06:39;;;;;;;42.40;20.10;;;3.40;99.90;;;;;;4160998;28;20770;-66
2022/12/03 10:08:41;;;;;;;41.10;19.13;;;3.50;99.90;;;;;;4175902;28;20693;-65
2022/12/03 10:10:42;;;;;;;37.70;19.30;;;3.50;99.90;;;;;;4160483;28;20352;-68
2022/12/03 10:12:44;;;;;;;41.13;18.60;;;3.50;99.90;;;;;;4161123;28;20274;-65
2022/12/03 10:14:45;;;;;;;42.10;18.80;;;3.50;99.90;;;;;;4161925;28;20266;-64
2022/12/03 10:16:47;;;;;;;43.77;18.53;;;3.50;99.90;;;;;;4160464;28;20651;-65
2022/12/03 10:18:52;;;;;;;45.00;18.87;;;3.50;99.90;;;;;;4161936;28;20282;-67
2022/12/03 10:20:53;;;;;;;43.07;19.27;;;3.60;99.90;;;;;;4160885;28;20267;-65
2022/12/03 10:22:54;;;;;;;39.70;19.13;;;3.60;99.90;;;;;;4162214;28;20340;-63
2022/12/03 10:25:20;;;;;;;43.77;19.13;;;3.60;99.90;;;;;;4160304;28;20615;-65
2022/12/03 10:27:24;;;;;;;47.20;19.83;;;3.60;99.90;;;;;;4153732;28;20271;-62
2022/12/03 10:29:28;;;;;;;43.83;18.30;;;3.60;99.90;;;;;;4159944;28;20325;-64
2022/12/03 10:31:35;;;;;;;43.67;20.00;;;3.50;99.90;;;;;;4159663;28;20340;-63
2022/12/03 10:33:46;;;;;;;39.23;19.37;;;3.50;99.90;;;;;;4160034;28;20953;-64
2022/12/03 10:35:47;;;;;;;40.00;20.48;;;3.50;99.90;;;;;;4161651;28;20279;-63
2022/12/03 10:37:58;;;;;;;40.03;18.73;;;3.50;99.90;;;;;;4160388;28;20544;-64
2022/12/03 10:40:10;;;;;;;38.80;18.10;;;3.50;99.90;;;;;;4161309;28;20320;-64
2022/12/03 10:42:15;;;;;;;35.63;16.33;;;3.40;99.90;;;;;;4160689;28;20263;-64
2022/12/03 10:44:19;;;;;;;32.37;16.87;;;3.40;99.90;;;;;;4161022;28;20271;-62
2022/12/03 10:46:21;;;;;;;44.53;18.87;;;3.30;99.90;;;;;;4159582;28;20337;-64
2022/12/03 10:48:25;;;;;;;38.77;16.80;;;3.30;99.90;;;;;;4161498;28;20324;-64